Time;durP1;ratioP1;P1;durP2;ratioP2;P2;SDS_P1;SDS_P2;PMS_P1;PMS_P2;Temp;Humidity;BMP_temperature;BMP_pressure;BME280_temperature;BME280_humidity;BME280_pressure;Samples;Min_cycle;Max_cycle;Signal;HPM_P1;HPM_P2
2021/01/07 00:01:00;;;;;;;180.00;83.60;;;;;;;0.34;94.95;98301.46;4340406;80;21182;-86
2021/01/07 00:07:01;;;;;;;174.87;79.58;;;;;;;0.36;94.79;98318.09;4335885;80;21178;-85
2021/01/07 00:13:03;;;;;;;184.00;85.15;;;;;;;0.37;94.70;98313.73;4337154;80;21137;-87
2021/01/07 00:19:05;;;;;;;187.25;85.10;;;;;;;0.33;94.91;98315.47;4336382;80;21158;-87
2021/01/07 00:25:09;;;;;;;184.70;87.80;;;;;;;0.33;94.91;98310.09;4366920;80;21174;-87
2021/01/07 00:31:11;;;;;;;191.55;89.13;;;;;;;0.38;94.91;98317.19;4254468;82;21637;-87
2021/01/07 00:37:12;;;;;;;188.80;85.28;;;;;;;0.35;94.79;98317.84;4369938;79;21776;-86
2021/01/07 00:43:14;;;;;;;206.02;90.67;;;;;;;0.18;95.04;98300.42;4362638;80;21610;-86
2021/01/07 00:49:15;;;;;;;188.60;88.97;;;;;;;0.18;95.08;98327.34;4369900;80;21292;-87
2021/01/07 00:55:17;;;;;;;188.35;91.25;;;;;;;0.27;95.15;98331.58;4368170;79;21178;-86
2021/01/07 01:01:20;;;;;;;186.20;83.75;;;;;;;0.34;95.09;98335.91;4381022;79;21311;-87
2021/01/07 01:07:22;;;;;;;183.62;85.17;;;;;;;0.39;94.97;98326.86;4387510;79;21169;-86
2021/01/07 01:13:23;;;;;;;166.62;79.40;;;;;;;0.29;94.94;98323.98;4371653;79;21133;-87
2021/01/07 01:19:25;;;;;;;178.23;85.15;;;;;;;0.40;95.17;98328.43;4389713;79;21202;-86
2021/01/07 01:25:27;;;;;;;170.65;81.82;;;;;;;0.29;95.26;98286.29;4380382;79;21173;-86
2021/01/07 01:31:29;;;;;;;181.47;83.85;;;;;;;0.39;95.23;98301.28;4374788;79;21126;-86
2021/01/07 01:37:31;;;;;;;195.77;87.78;;;;;;;0.47;94.94;98313.34;4385726;79;21164;-87
2021/01/07 01:43:36;;;;;;;175.85;80.28;;;;;;;0.53;95.23;98328.22;4348128;79;21202;-87
2021/01/07 01:49:37;;;;;;;170.28;77.80;;;;;;;0.55;95.13;98337.32;4375687;79;21162;-86
2021/01/07 01:55:41;;;;;;;180.35;81.92;;;;;;;0.53;94.99;98325.53;4376763;79;21148;-87
2021/01/07 02:01:42;;;;;;;194.82;85.95;;;;;;;0.55;95.11;98318.47;4380245;79;21141;-86
2021/01/07 02:07:45;;;;;;;189.32;83.20;;;;;;;0.47;95.21;98291.80;4380927;79;21163;-86
2021/01/07 02:13:48;;;;;;;202.20;84.28;;;;;;;0.47;95.21;98291.80;4376130;79;21180;-88
2021/01/07 02:19:50;;;;;;;171.57;80.35;;;;;;;0.47;94.66;98311.98;4388307;79;21194;-87
2021/01/07 02:25:57;;;;;;;198.68;90.72;;;;;;;0.47;94.66;98311.98;4388551;79;21300;-87
2021/01/07 02:31:59;;;;;;;200.18;90.25;;;;;;;0.33;95.24;98293.93;4390374;80;21181;-87
2021/01/07 02:38:00;;;;;;;193.22;85.83;;;;;;;0.46;95.47;98302.89;4342713;80;21181;-86
2021/01/07 02:44:02;;;;;;;188.15;85.42;;;;;;;0.52;95.51;98309.12;4309419;80;21174;-87
2021/01/07 02:50:06;;;;;;;176.18;80.10;;;;;;;0.34;95.39;98300.12;4306829;80;21378;-86
2021/01/07 02:56:08;;;;;;;182.32;85.12;;;;;;;0.34;95.39;98300.12;4306880;80;22559;-86
2021/01/07 03:02:09;;;;;;;177.55;81.37;;;;;;;0.57;95.55;98323.75;4304806;80;21190;-87
2021/01/07 03:08:11;;;;;;;176.97;83.58;;;;;;;0.63;95.48;98317.05;4310263;80;21199;-87
2021/01/07 03:14:12;;;;;;;192.77;84.92;;;;;;;0.67;95.46;98308.57;4311093;80;21175;-87
2021/01/07 03:20:15;;;;;;;170.77;82.25;;;;;;;0.61;95.44;98289.64;4302082;80;21686;-87
2021/01/07 03:26:17;;;;;;;169.35;78.30;;;;;;;0.61;95.44;98289.64;4305180;80;21175;-87
2021/01/07 03:32:21;;;;;;;169.53;78.80;;;;;;;0.75;95.54;98313.09;4295995;80;21742;-87
2021/01/07 03:38:22;;;;;;;157.30;75.78;;;;;;;0.76;95.51;98310.64;4290161;80;21571;-87
2021/01/07 03:44:23;;;;;;;153.53;71.40;;;;;;;0.76;95.46;98318.72;4287902;80;21146;-87
2021/01/07 03:50:25;;;;;;;152.10;72.17;;;;;;;0.80;95.46;98319.63;4298895;80;21304;-87
2021/01/07 03:56:26;;;;;;;153.97;73.45;;;;;;;0.74;95.55;98289.16;4284276;80;21337;-86
2021/01/07 04:02:28;;;;;;;153.23;73.60;;;;;;;0.80;95.63;98312.90;4292190;80;21178;-86
2021/01/07 04:08:29;;;;;;;154.70;71.70;;;;;;;0.80;95.63;98312.90;4293758;80;22213;-86
2021/01/07 04:14:31;;;;;;;156.40;73.10;;;;;;;0.83;95.58;98314.16;4294492;80;21238;-87
2021/01/07 04:20:32;;;;;;;152.95;74.32;;;;;;;0.87;95.29;98319.12;4289121;80;22313;-86
2021/01/07 04:26:33;;;;;;;155.75;77.60;;;;;;;0.80;95.22;98323.67;4303081;80;21827;-86
2021/01/07 04:32:35;;;;;;;145.28;68.65;;;;;;;0.75;95.07;98324.44;4293211;80;21310;-87
2021/01/07 04:38:37;;;;;;;164.13;77.00;;;;;;;0.75;95.07;98324.44;4298621;80;21634;-87
2021/01/07 04:44:40;;;;;;;151.07;70.92;;;;;;;0.69;95.72;98325.75;4292087;80;21159;-86
2021/01/07 04:50:42;;;;;;;151.55;69.05;;;;;;;0.82;95.79;98329.53;4290899;80;21591;-86
2021/01/07 04:56:44;;;;;;;142.25;70.28;;;;;;;0.91;95.53;98326.80;4287796;80;21185;-86
2021/01/07 05:02:46;;;;;;;142.28;68.12;;;;;;;0.77;95.65;98283.12;4298570;80;21437;-86
2021/01/07 05:09:01;;;;;;;133.93;66.75;;;;;;;1.01;95.51;98319.65;4298840;80;22059;-87
2021/01/07 05:15:07;;;;;;;149.35;71.97;;;;;;;1.01;95.49;98318.30;4288126;80;21175;-86
2021/01/07 05:21:09;;;;;;;148.02;69.50;;;;;;;0.95;95.49;98316.37;4299989;80;21175;-87
2021/01/07 05:27:12;;;;;;;164.88;77.58;;;;;;;0.96;95.48;98319.29;4271837;82;21259;-86
2021/01/07 05:33:14;;;;;;;153.62;76.65;;;;;;;0.86;95.60;98300.80;4268979;82;21184;-86
2021/01/07 05:39:16;;;;;;;142.98;69.82;;;;;;;0.96;95.54;98311.20;4263706;82;21190;-87
2021/01/07 05:45:17;;;;;;;151.75;75.08;;;;;;;0.90;95.48;98299.05;4273114;82;21162;-87
2021/01/07 05:51:26;;;;;;;146.85;73.20;;;;;;;1.02;95.56;98323.36;4272005;81;21123;-87
2021/01/07 05:57:35;;;;;;;151.05;73.78;;;;;;;1.02;95.56;98323.36;4253968;82;21779;-87
2021/01/07 06:03:38;;;;;;;142.40;66.12;;;;;;;0.95;95.43;98320.97;4263188;82;21130;-88
2021/01/07 06:09:40;;;;;;;114.97;54.98;;;;;;;1.01;95.64;98335.82;4273331;82;21184;-88
2021/01/07 06:15:46;;;;;;;112.80;52.48;;;;;;;1.01;95.64;98335.82;4268972;81;21182;-87
2021/01/07 06:21:49;;;;;;;108.92;50.75;;;;;;;0.98;95.78;98341.32;4248960;82;21219;-88
2021/01/07 06:27:52;;;;;;;97.50;49.35;;;;;;;1.01;95.60;98339.86;4270546;81;21196;-87
2021/01/07 06:33:54;;;;;;;93.03;45.20;;;;;;;1.02;95.58;98342.23;4286853;81;21584;-87
2021/01/07 06:39:58;;;;;;;93.00;42.67;;;;;;;1.06;95.63;98347.77;4292977;81;21314;-88
2021/01/07 06:45:59;;;;;;;85.12;39.48;;;;;;;1.05;95.65;98356.40;4281304;81;21168;-88
2021/01/07 06:52:04;;;;;;;84.47;38.58;;;;;;;1.03;95.58;98364.04;4284486;81;21174;-89
2021/01/07 06:58:07;;;;;;;74.30;37.48;;;;;;;1.03;95.60;98375.38;4276617;81;21207;-88
2021/01/07 07:04:10;;;;;;;71.95;35.78;;;;;;;1.05;95.48;98389.32;4267040;82;21145;-88
2021/01/07 07:10:23;;;;;;;72.40;34.85;;;;;;;1.05;95.48;98389.32;4283443;81;21653;-88
2021/01/07 07:16:27;;;;;;;64.45;32.35;;;;;;;1.07;95.59;98393.80;4275533;81;21134;-89
2021/01/07 07:22:32;;;;;;;63.52;30.80;;;;;;;1.09;95.58;98402.36;4265775;81;21136;-88
2021/01/07 07:46:26;;;;;;;63.58;27.60;;;;;;;1.06;95.34;98439.41;4342196;80;23398;-88
2021/01/07 07:52:27;;;;;;;56.18;26.02;;;;;;;0.99;95.43;98448.00;4289342;81;21304;-88
2021/01/07 07:58:29;;;;;;;49.25;24.72;;;;;;;0.94;95.42;98442.78;4289662;81;21193;-88
2021/01/07 08:04:30;;;;;;;48.50;23.80;;;;;;;1.04;95.51;98465.34;4289431;81;21213;-89
2021/01/07 08:10:32;;;;;;;43.08;22.42;;;;;;;1.09;95.46;98467.86;4285573;81;21221;-89
2021/01/07 08:16:34;;;;;;;51.30;24.72;;;;;;;1.08;95.26;98470.30;4289613;81;21198;-89
2021/01/07 08:22:36;;;;;;;42.85;22.02;;;;;;;1.06;95.16;98481.98;4289104;81;21175;-89
2021/01/07 08:28:42;;;;;;;48.87;23.50;;;;;;;1.09;95.14;98484.03;4289979;81;21201;-88
2021/01/07 08:34:45;;;;;;;;;;;;;;;1.12;95.12;98492.02;4291607;81;21174;-89
2021/01/07 08:40:47;;;;;;;61.20;27.17;;;;;;;1.09;94.95;98500.75;4289284;81;20275;-88
2021/01/07 08:46:51;;;;;;;65.40;29.30;;;;;;;1.03;94.94;98497.46;4289660;81;21626;-89
2021/01/07 08:52:54;;;;;;;56.42;25.48;;;;;;;1.06;95.16;98506.24;4286385;81;21332;-90
2021/01/07 08:59:39;;;;;;;58.42;27.17;;;;;;;1.07;95.15;98511.86;4288298;81;21651;-88
2021/01/07 09:05:40;;;;;;;42.58;20.12;;;;;;;1.09;95.01;98516.38;4286646;81;21638;-87
2021/01/07 09:11:42;;;;;;;38.20;17.95;;;;;;;1.03;94.61;98519.02;4288701;81;21530;-89
2021/01/07 09:17:48;;;;;;;46.37;21.10;;;;;;;1.01;94.51;98527.18;4288229;81;21358;-89
2021/01/07 09:23:56;;;;;;;47.70;21.93;;;;;;;0.89;94.63;98529.20;4286961;81;22351;-88
2021/01/07 09:29:58;;;;;;;52.43;22.05;;;;;;;0.88;94.94;98510.66;4290070;81;21159;-88
2021/01/07 09:35:59;;;;;;;35.63;18.57;;;;;;;0.88;94.94;98510.66;4284799;81;21580;-89
2021/01/07 09:42:01;;;;;;;41.50;20.88;;;;;;;1.06;94.66;98527.01;4287179;81;21828;-89
2021/01/07 09:48:03;;;;;;;47.98;22.65;;;;;;;1.07;94.18;98523.19;4288317;81;21718;-88
2021/01/07 09:54:04;;;;;;;47.70;23.57;;;;;;;1.29;95.09;98517.53;4285235;81;21208;-88
2021/01/07 10:00:08;;;;;;;53.73;25.02;;;;;;;1.31;94.23;98522.05;4287566;81;21614;-87
2021/01/07 10:06:10;;;;;;;53.28;25.23;;;;;;;1.27;94.11;98521.10;4286137;81;21190;-88
2021/01/07 10:12:11;;;;;;;53.33;25.23;;;;;;;1.29;94.50;98532.36;4286805;81;21372;-88
2021/01/07 10:18:12;;;;;;;46.15;22.67;;;;;;;1.33;94.26;98528.69;4284854;81;22049;-89
2021/01/07 10:24:17;;;;;;;49.45;22.98;;;;;;;1.35;94.13;98519.72;4287910;81;21957;-88
2021/01/07 10:30:19;;;;;;;44.80;22.55;;;;;;;1.40;94.14;98527.63;4290813;81;21337;-88
2021/01/07 10:36:21;;;;;;;51.58;24.35;;;;;;;1.56;94.27;98531.90;4285894;81;21294;-88
2021/01/07 10:42:23;;;;;;;43.38;21.30;;;;;;;1.74;93.99;98528.53;4286806;81;21741;-88
2021/01/07 10:48:25;;;;;;;43.20;21.52;;;;;;;1.73;93.37;98531.78;4298007;81;21729;-88
2021/01/07 10:54:39;;;;;;;40.70;19.32;;;;;;;1.84;93.42;98535.67;4285073;81;21773;-86
2021/01/07 11:01:08;;;;;;;41.42;20.12;;;;;;;1.91;92.85;98533.22;4293833;82;21334;-91
2021/01/07 11:07:21;;;;;;;39.15;19.32;;;;;;;1.78;91.98;98530.24;4212240;83;21204;-89
2021/01/07 11:13:26;;;;;;;42.45;20.12;;;;;;;1.71;92.62;98534.01;4276485;81;21144;-88
2021/01/07 11:19:30;;;;;;;39.55;20.57;;;;;;;1.81;92.84;98532.28;4280789;81;21186;-89
2021/01/07 11:25:34;;;;;;;39.75;20.75;;;;;;;1.98;92.99;98530.80;4294163;81;21193;-88
2021/01/07 11:31:37;;;;;;;37.23;18.77;;;;;;;2.27;92.88;98521.25;4274982;81;21188;-88
2021/01/07 11:37:47;;;;;;;32.42;17.05;;;;;;;2.48;92.43;98523.36;4259654;81;21298;-87
2021/01/07 11:44:06;;;;;;;29.48;15.15;;;;;;;2.35;91.49;98527.71;4246594;82;21246;-88
2021/01/07 11:50:09;;;;;;;27.25;14.50;;;;;;;2.13;91.21;98526.72;4202931;82;21142;-87
2021/01/07 11:56:12;;;;;;;23.18;13.30;;;;;;;1.96;90.80;98529.56;4229897;82;21198;-88
2021/01/07 12:02:14;;;;;;;31.42;16.42;;;;;;;1.77;91.03;98519.78;4223827;82;22149;-89
2021/01/07 12:08:55;;;;;;;32.65;17.12;;;;;;;1.65;90.93;98531.28;4181049;82;21342;-87
2021/01/07 12:14:57;;;;;;;33.92;17.75;;;;;;;1.55;91.02;98535.14;4157432;84;21414;-88
2021/01/07 12:21:06;;;;;;;38.75;20.12;;;;;;;1.38;91.24;98540.64;4231663;82;21146;-87
2021/01/07 12:27:09;;;;;;;41.63;20.12;;;;;;;1.42;91.47;98541.59;4153969;84;21181;-88
2021/01/07 12:33:53;;;;;;;49.08;23.02;;;;;;;1.41;90.94;98541.88;4155224;83;21190;-89
2021/01/07 12:40:00;;;;;;;45.90;22.82;;;;;;;1.34;91.34;98544.31;4147692;84;21195;-89
2021/01/07 12:46:03;;;;;;;50.88;25.85;;;;;;;1.39;91.14;98542.21;4215608;83;21178;-89
2021/01/07 12:52:07;;;;;;;50.63;25.68;;;;;;;1.37;91.17;98539.07;4219269;83;21211;-88
2021/01/07 12:58:17;;;;;;;52.10;26.27;;;;;;;1.35;91.41;98542.64;4156027;83;21206;-89
2021/01/07 13:04:44;;;;;;;48.58;23.65;;;;;;;1.42;91.40;98545.63;4150012;84;21161;-88
2021/01/07 13:10:48;;;;;;;42.48;21.25;;;;;;;1.50;90.94;98554.20;4154458;84;21209;-88
2021/01/07 13:16:51;;;;;;;44.40;21.65;;;;;;;1.50;90.97;98550.16;4160563;83;21188;-88
2021/01/07 13:22:53;;;;;;;41.83;20.70;;;;;;;1.51;90.96;98553.66;4162002;84;21731;-89
2021/01/07 13:28:55;;;;;;;40.65;21.75;;;;;;;1.46;90.75;98555.98;4155986;84;21686;-88
2021/01/07 13:34:58;;;;;;;44.55;22.17;;;;;;;1.47;90.83;98560.84;4146739;85;21184;-89
2021/01/07 13:41:01;;;;;;;39.70;21.93;;;;;;;1.51;90.90;98564.45;4148191;85;21222;-89
2021/01/07 13:47:03;;;;;;;46.10;20.82;;;;;;;1.47;90.65;98567.58;4228859;82;21332;-89
2021/01/07 13:53:08;;;;;;;42.13;22.85;;;;;;;1.39;90.89;98578.62;4162810;85;21176;-88
2021/01/07 13:59:10;;;;;;;42.73;21.07;;;;;;;1.34;90.85;98586.12;4166042;83;21198;-88
2021/01/07 14:05:13;;;;;;;40.75;21.15;;;;;;;1.29;91.13;98584.39;4177798;83;21196;-88
2021/01/07 14:11:21;;;;;;;42.00;21.90;;;;;;;1.23;90.96;98580.84;4231908;82;21199;-87
2021/01/07 14:17:22;;;;;;;43.07;21.67;;;;;;;1.22;90.98;98584.67;4168495;83;21201;-87
2021/01/07 14:23:25;;;;;;;44.60;20.23;;;;;;;1.17;90.91;98584.84;4161896;83;21177;-87
2021/01/07 14:29:28;;;;;;;39.25;19.65;;;;;;;1.15;91.17;98592.45;4165133;83;21798;-87
2021/01/07 14:35:32;;;;;;;43.68;21.33;;;;;;;1.23;91.15;98603.77;4213788;82;21782;-87
2021/01/07 14:41:34;;;;;;;36.03;18.40;;;;;;;1.24;91.08;98606.69;4182744;82;21233;-87
2021/01/07 14:47:38;;;;;;;33.42;18.60;;;;;;;1.17;90.90;98609.91;4221907;83;21200;-86
2021/01/07 14:53:40;;;;;;;39.40;19.65;;;;;;;1.19;91.08;98611.70;4169107;85;21199;-87
2021/01/07 14:59:47;;;;;;;44.85;20.95;;;;;;;1.16;90.78;98612.92;4194301;82;21754;-87
2021/01/07 15:06:09;;;;;;;43.17;21.48;;;;;;;1.05;90.81;98608.42;4211640;83;21143;-86
2021/01/07 15:12:29;;;;;;;48.83;22.75;;;;;;;1.10;90.78;98611.50;4584689;76;22913;-88
2021/01/07 15:18:58;;;;;;;52.60;23.85;;;;;;;1.02;90.84;98615.80;4479484;78;21172;-86
2021/01/07 15:25:06;;;;;;;47.85;22.67;;;;;;;1.01;90.89;98616.13;4487412;78;21958;-88
2021/01/07 15:31:31;;;;;;;51.80;23.47;;;;;;;1.01;90.77;98623.67;4486324;79;21101;-87
2021/01/07 15:38:06;;;;;;;46.50;22.05;;;;;;;0.95;90.71;98621.45;4488834;79;21140;-86
2021/01/07 15:44:41;;;;;;;43.58;21.62;;;;;;;0.88;90.73;98626.53;4487505;78;21148;-86
2021/01/07 15:51:02;;;;;;;37.75;20.40;;;;;;;0.86;90.77;98637.63;4478106;78;21571;-87
2021/01/07 15:57:46;;;;;;;42.20;21.37;;;;;;;0.77;90.82;98635.52;4485234;78;21181;-86
2021/01/07 16:03:48;;;;;;;42.78;25.00;;;;;;;0.57;90.58;98637.52;4488914;78;21145;-86
2021/01/07 16:09:50;;;;;;;64.22;29.35;;;;;;;0.41;90.80;98641.80;4496846;78;21153;-86
2021/01/07 16:15:52;;;;;;;59.45;27.60;;;;;;;0.36;90.79;98641.18;4487729;78;21785;-87
2021/01/07 16:22:20;;;;;;;53.87;25.88;;;;;;;0.26;90.70;98636.90;4494475;78;21192;-87
2021/01/07 16:28:23;;;;;;;61.45;27.45;;;;;;;0.28;91.10;98632.00;4469986;78;21152;-86
2021/01/07 16:34:24;;;;;;;50.78;24.57;;;;;;;0.30;91.04;98638.41;4489101;78;21630;-85
2021/01/07 16:40:26;;;;;;;47.90;20.32;;;;;;;0.38;90.95;98641.63;4483625;78;21124;-86
2021/01/07 16:46:28;;;;;;;46.58;23.00;;;;;;;0.31;90.61;98626.52;4475042;78;21534;-86
2021/01/07 16:52:40;;;;;;;46.15;21.10;;;;;;;0.34;90.89;98648.23;4485828;78;21100;-86
2021/01/07 16:58:41;;;;;;;48.83;21.82;;;;;;;0.40;90.71;98642.12;4492378;78;21712;-86
2021/01/07 17:04:42;;;;;;;41.98;19.82;;;;;;;0.44;90.76;98633.66;4490643;78;21129;-86
2021/01/07 17:10:44;;;;;;;43.70;21.75;;;;;;;0.52;90.43;98639.03;4486632;78;21164;-87
2021/01/07 17:16:52;;;;;;;44.63;20.60;;;;;;;0.57;90.47;98639.41;4474802;78;21156;-86
2021/01/07 17:22:53;;;;;;;48.30;21.85;;;;;;;0.41;90.00;98635.07;4474168;78;21161;-86
2021/01/07 17:28:55;;;;;;;49.35;22.93;;;;;;;0.41;90.00;98635.07;4478357;78;21105;-86
2021/01/07 17:35:24;;;;;;;49.58;23.27;;;;;;;0.56;90.74;98641.34;4477658;78;21195;-86
2021/01/07 17:41:37;;;;;;;45.48;21.95;;;;;;;0.56;90.74;98641.34;4488188;78;21271;-85
2021/01/07 17:47:39;;;;;;;56.98;24.90;;;;;;;0.64;90.66;98639.74;4481462;78;21176;-86
2021/01/07 17:53:46;;;;;;;63.95;29.52;;;;;;;0.63;90.47;98647.02;4387881;80;21621;-86
2021/01/07 17:59:47;;;;;;;58.50;29.25;;;;;;;0.49;90.17;98647.75;4377853;81;21153;-85
2021/01/07 18:05:50;;;;;;;57.43;27.77;;;;;;;0.54;90.58;98658.36;4361146;81;21506;-86
2021/01/07 18:11:56;;;;;;;70.85;32.28;;;;;;;0.50;90.27;98660.09;4320017;82;21959;-86
2021/01/07 18:17:57;;;;;;;79.80;33.53;;;;;;;0.50;90.27;98660.09;4331210;81;21338;-85
2021/01/07 18:23:59;;;;;;;66.45;31.05;;;;;;;0.54;90.42;98659.71;4400114;79;21137;-86
2021/01/07 18:30:00;;;;;;;90.15;39.98;;;;;;;0.49;90.45;98635.63;4384511;80;21480;-87
2021/01/07 18:36:06;;;;;;;87.30;41.92;;;;;;;0.71;90.35;98676.41;4317620;81;21149;-87
2021/01/07 18:42:14;;;;;;;89.47;44.55;;;;;;;0.71;90.35;98676.41;4394531;80;21279;-86
2021/01/07 18:48:15;;;;;;;96.42;41.83;;;;;;;0.72;90.22;98670.70;4392749;79;21208;-86
2021/01/07 18:54:50;;;;;;;102.22;44.93;;;;;;;0.71;90.29;98674.52;4385061;81;21981;-86
2021/01/07 19:00:51;;;;;;;90.25;43.33;;;;;;;0.65;89.91;98671.75;4382571;80;21205;-85
2021/01/07 19:06:53;;;;;;;103.62;46.08;;;;;;;0.69;90.21;98671.34;4380187;80;21165;-86
2021/01/07 19:12:54;;;;;;;98.80;46.80;;;;;;;0.69;90.21;98671.34;4348583;80;21193;-86
2021/01/07 19:18:56;;;;;;;103.72;45.28;;;;;;;0.69;90.14;98685.38;4343474;80;21161;-86
2021/01/07 19:25:04;;;;;;;90.85;44.38;;;;;;;0.67;90.16;98693.78;4343555;80;21722;-85
2021/01/07 19:31:06;;;;;;;103.60;51.50;;;;;;;0.64;90.25;98707.09;4343670;80;21332;-86
2021/01/07 19:37:09;;;;;;;123.67;59.05;;;;;;;0.60;90.46;98699.39;4340449;80;21789;-87
2021/01/07 19:43:10;;;;;;;110.68;51.42;;;;;;;0.53;90.23;98706.62;4345459;80;21800;-87
2021/01/07 19:49:12;;;;;;;102.00;50.15;;;;;;;0.34;90.23;98687.81;4344492;80;22472;-86
2021/01/07 19:55:14;;;;;;;102.12;50.10;;;;;;;0.40;90.71;98711.59;4343637;80;21149;-86
2021/01/07 20:01:17;;;;;;;97.65;46.13;;;;;;;0.40;90.71;98711.59;4343354;80;21169;-86
2021/01/07 20:07:19;;;;;;;98.70;42.08;;;;;;;0.28;90.47;98697.16;4341973;80;21369;-86
2021/01/07 20:13:20;;;;;;;100.02;44.95;;;;;;;0.40;90.65;98710.78;4338682;80;21205;-86
2021/01/07 20:19:22;;;;;;;98.45;48.75;;;;;;;0.40;90.65;98710.78;4344910;80;21196;-86
2021/01/07 20:25:24;;;;;;;103.72;46.90;;;;;;;0.38;90.31;98722.41;4348772;80;21396;-86
2021/01/07 20:31:26;;;;;;;89.85;40.80;;;;;;;0.39;90.40;98720.78;4339616;80;21186;-86
2021/01/07 20:37:28;;;;;;;89.72;41.48;;;;;;;0.43;89.93;98722.27;4339159;80;21698;-86
2021/01/07 20:43:38;;;;;;;80.95;35.30;;;;;;;0.43;89.93;98722.27;4351891;80;21774;-86
2021/01/07 20:49:40;;;;;;;76.67;36.83;;;;;;;0.41;89.79;98725.85;4347047;80;21155;-85
2021/01/07 20:55:42;;;;;;;89.32;39.85;;;;;;;0.37;90.03;98727.57;4345204;80;21155;-85
2021/01/07 21:01:43;;;;;;;88.10;38.55;;;;;;;0.42;89.71;98726.08;4350723;80;21297;-85
2021/01/07 21:07:45;;;;;;;68.62;29.57;;;;;;;0.41;89.24;98729.89;4345827;80;21177;-85
2021/01/07 21:13:46;;;;;;;64.97;28.45;;;;;;;0.41;89.24;98729.89;4382043;80;21349;-86
2021/01/07 21:19:48;;;;;;;59.85;24.40;;;;;;;0.40;89.36;98735.02;4388685;80;21169;-86
2021/01/07 21:25:49;;;;;;;53.23;23.87;;;;;;;0.40;89.36;98735.02;4384441;80;21191;-86
2021/01/07 21:32:07;;;;;;;44.80;19.48;;;;;;;0.41;89.32;98729.31;4358819;80;21178;-86
2021/01/07 21:38:09;;;;;;;34.23;15.78;;;;;;;0.42;89.11;98723.39;4381614;80;21307;-86
2021/01/07 21:44:10;;;;;;;34.03;14.68;;;;;;;0.42;88.70;98730.92;4381158;80;21155;-85
2021/01/07 21:50:12;;;;;;;30.37;13.53;;;;;;;0.42;88.70;98730.92;4383246;80;21121;-86
2021/01/07 21:56:14;;;;;;;25.82;12.28;;;;;;;0.43;88.11;98729.00;4378534;80;21292;-86
2021/01/07 22:02:19;;;;;;;24.43;12.20;;;;;;;0.33;87.77;98711.24;4384600;80;21735;-86
2021/01/07 22:08:19;;;;;;;28.85;12.85;;;;;;;0.44;87.70;98734.64;4385413;80;21427;-86
2021/01/07 22:14:21;;;;;;;30.85;13.40;;;;;;;0.44;87.70;98734.64;4386360;80;21583;-87
2021/01/07 22:20:22;;;;;;;28.60;12.03;;;;;;;0.45;87.30;98737.56;4380595;80;21164;-86
2021/01/07 22:26:25;;;;;;;34.45;13.80;;;;;;;0.44;87.64;98736.77;4391430;80;21178;-86
2021/01/07 22:32:26;;;;;;;26.77;12.90;;;;;;;0.46;87.49;98734.56;4314412;81;21125;-87
2021/01/07 22:38:27;;;;;;;28.85;12.13;;;;;;;0.45;87.52;98739.72;4314449;81;21127;-86
2021/01/07 22:44:29;;;;;;;31.25;15.43;;;;;;;0.39;87.36;98735.59;4310885;81;21154;-86
2021/01/07 22:50:30;;;;;;;31.48;14.47;;;;;;;0.38;87.74;98739.38;4316413;81;21162;-86
2021/01/07 22:56:35;;;;;;;34.03;15.72;;;;;;;0.34;88.04;98734.94;4381499;80;21162;-86
2021/01/07 23:02:36;;;;;;;39.48;14.83;;;;;;;0.43;88.26;98737.88;4383126;80;21364;-86
2021/01/07 23:08:39;;;;;;;32.20;13.72;;;;;;;0.44;88.01;98734.64;4381458;80;21174;-86
2021/01/07 23:14:40;;;;;;;33.18;13.48;;;;;;;0.44;88.01;98734.64;4384376;80;21122;-86
2021/01/07 23:20:41;;;;;;;35.48;14.98;;;;;;;0.46;87.43;98736.45;4385111;80;21178;-86
2021/01/07 23:26:43;;;;;;;41.08;17.55;;;;;;;0.46;87.43;98736.45;4383646;80;21320;-86
2021/01/07 23:32:44;;;;;;;43.40;16.95;;;;;;;0.36;87.08;98734.84;4387454;80;21177;-85
2021/01/07 23:38:46;;;;;;;48.20;19.27;;;;;;;0.43;86.95;98741.12;4382610;80;21188;-85
2021/01/07 23:44:47;;;;;;;46.15;19.62;;;;;;;0.43;86.95;98741.12;4382521;80;21150;-85
2021/01/07 23:50:49;;;;;;;44.00;19.10;;;;;;;0.44;86.61;98742.15;4392010;80;21191;-86
2021/01/07 23:56:55;;;;;;;51.90;21.17;;;;;;;0.33;86.68;98748.94;4382212;80;21138;-85
